createdAt,value
2018-03-23T00:01:13.650Z,2.68
2018-03-23T00:03:41.897Z,2.77
2018-03-23T00:06:09.096Z,2.77
2018-03-23T00:08:36.564Z,2.79
2018-03-23T00:11:03.709Z,2.81
2018-03-23T00:13:33.998Z,2.77
2018-03-23T00:16:01.294Z,2.81
2018-03-23T00:18:28.438Z,2.83
2018-03-23T00:20:55.696Z,2.84
2018-03-23T00:23:26.435Z,2.88
2018-03-23T00:25:53.686Z,2.83
2018-03-23T00:28:20.965Z,2.97
2018-03-23T00:30:48.085Z,2.92
2018-03-23T00:33:18.640Z,2.90
2018-03-23T00:35:45.849Z,2.91
2018-03-23T00:38:14.035Z,2.98
2018-03-23T00:40:42.077Z,2.95
2018-03-23T00:43:10.726Z,3.01
2018-03-23T00:45:38.666Z,2.97
2018-03-23T00:48:05.962Z,2.96
2018-03-23T00:50:33.126Z,3.10
2018-03-23T00:53:01.162Z,3.07
2018-03-23T00:55:28.417Z,3.06
2018-03-23T00:57:55.697Z,3.12
2018-03-23T01:00:22.918Z,3.19
2018-03-23T01:02:50.688Z,3.24
2018-03-23T01:05:18.167Z,3.15
2018-03-23T01:07:45.410Z,3.13
2018-03-23T01:10:13.242Z,3.18
2018-03-23T01:12:40.709Z,3.13
2018-03-23T01:15:11.578Z,3.24
2018-03-23T01:17:38.869Z,3.18
2018-03-23T01:20:06.039Z,3.26
2018-03-23T01:22:33.281Z,3.33
2018-03-23T01:25:00.984Z,3.29
2018-03-23T01:27:28.258Z,3.28
2018-03-23T01:29:55.353Z,3.38
2018-03-23T01:32:22.546Z,3.55
2018-03-23T01:34:51.189Z,3.47
2018-03-23T01:37:18.431Z,3.53
2018-03-23T01:39:45.620Z,3.53
2018-03-23T01:42:12.869Z,3.63
2018-03-23T01:44:40.509Z,3.57
2018-03-23T01:47:08.379Z,3.59
2018-03-23T01:49:35.570Z,3.76
2018-03-23T01:52:02.815Z,3.78
2018-03-23T01:54:31.021Z,3.73
2018-03-23T01:56:58.328Z,3.79
2018-03-23T01:59:25.453Z,3.89
2018-03-23T02:01:52.661Z,3.93
2018-03-23T02:04:23.905Z,4.08
2018-03-23T02:06:51.174Z,4.20
2018-03-23T02:09:18.498Z,4.22
2018-03-23T02:11:45.582Z,4.33
2018-03-23T02:14:13.893Z,4.38
2018-03-23T02:16:41.041Z,4.36
2018-03-23T02:19:08.340Z,4.37
2018-03-23T02:21:35.580Z,4.38
2018-03-23T02:24:07.474Z,4.34
2018-03-23T02:26:34.770Z,4.29
2018-03-23T02:29:02.675Z,4.38
2018-03-23T02:31:29.872Z,4.54
2018-03-23T02:34:01.565Z,4.42
2018-03-23T02:36:28.757Z,4.56
2018-03-23T02:38:56.006Z,4.59
2018-03-23T02:41:23.325Z,4.64
2018-03-23T02:43:53.694Z,4.71
2018-03-23T02:46:21.208Z,4.85
2018-03-23T02:48:48.670Z,4.84
2018-03-23T02:51:15.680Z,4.89
2018-03-23T02:53:45.968Z,4.94
2018-03-23T02:56:13.958Z,5.04
2018-03-23T02:58:41.316Z,5.00
2018-03-23T03:01:08.528Z,5.06
2018-03-23T03:03:39.133Z,5.06
2018-03-23T03:06:06.395Z,5.13
2018-03-23T03:08:33.689Z,5.07
2018-03-23T03:11:00.847Z,5.08
2018-03-23T03:13:29.234Z,5.08
2018-03-23T03:15:56.476Z,5.15
2018-03-23T03:18:23.862Z,5.07
2018-03-23T03:20:51.134Z,5.12
2018-03-23T03:23:19.541Z,5.09
2018-03-23T03:25:46.793Z,5.18
2018-03-23T03:28:14.021Z,5.11
2018-03-23T03:30:41.253Z,5.18
2018-03-23T03:33:12.459Z,5.08
2018-03-23T03:35:39.798Z,5.11
2018-03-23T03:38:07.041Z,5.28
2018-03-23T03:40:34.297Z,5.11
2018-03-23T03:43:02.577Z,5.24
2018-03-23T03:45:30.589Z,5.27
2018-03-23T03:47:57.837Z,5.28
2018-03-23T03:50:25.192Z,5.29
2018-03-23T03:52:55.938Z,5.28
2018-03-23T03:55:23.417Z,5.29
2018-03-23T03:57:50.748Z,5.31
2018-03-23T04:00:18.046Z,5.33
2018-03-23T04:02:46.360Z,5.33
2018-03-23T04:05:13.500Z,5.32
2018-03-23T04:07:40.806Z,5.36
2018-03-23T04:10:08.133Z,5.33
2018-03-23T04:12:35.329Z,5.41
2018-03-23T04:15:02.626Z,5.44
2018-03-23T04:17:29.829Z,5.50
2018-03-23T04:19:57.041Z,5.36
2018-03-23T04:22:24.233Z,5.43
2018-03-23T04:24:55.034Z,5.46
2018-03-23T04:27:22.241Z,5.46
2018-03-23T04:29:49.326Z,5.43
2018-03-23T04:32:16.569Z,5.44
2018-03-23T04:34:47.010Z,5.51
2018-03-23T04:37:14.251Z,5.61
2018-03-23T04:39:41.530Z,5.52
2018-03-23T04:42:08.776Z,5.50
2018-03-23T04:44:39.169Z,5.56
2018-03-23T04:47:06.743Z,5.58
2018-03-23T04:49:33.929Z,5.64
2018-03-23T04:52:01.199Z,5.51
2018-03-23T04:54:31.762Z,5.56
2018-03-23T04:56:59.042Z,5.59
2018-03-23T04:59:27.457Z,5.63
2018-03-23T05:01:54.702Z,5.67
2018-03-23T05:04:26.221Z,5.61
2018-03-23T05:06:53.518Z,5.71
2018-03-23T05:09:21.413Z,5.65
2018-03-23T05:11:48.739Z,5.67
2018-03-23T05:14:22.981Z,5.81
2018-03-23T05:16:50.393Z,5.69
2018-03-23T05:19:18.251Z,5.75
2018-03-23T05:21:45.506Z,5.86
2018-03-23T05:24:16.548Z,5.84
2018-03-23T05:26:43.711Z,5.88
2018-03-23T05:29:11.017Z,5.90
2018-03-23T05:31:38.622Z,5.90
2018-03-23T05:34:06.974Z,6.00
2018-03-23T05:36:35.506Z,6.04
2018-03-23T05:39:02.757Z,6.00
2018-03-23T05:41:29.862Z,5.99
2018-03-23T05:43:58.267Z,5.96
2018-03-23T05:46:25.431Z,6.01
2018-03-23T05:48:52.697Z,6.02
2018-03-23T05:51:19.938Z,6.20
2018-03-23T05:53:51.086Z,6.18
2018-03-23T05:56:18.287Z,6.25
2018-03-23T05:58:45.724Z,6.19
2018-03-23T06:01:12.910Z,6.20
2018-03-23T06:03:43.306Z,6.24
2018-03-23T06:06:11.203Z,6.30
2018-03-23T06:08:38.557Z,6.28
2018-03-23T06:11:05.893Z,6.12
2018-03-23T06:13:36.409Z,6.16
2018-03-23T06:16:03.730Z,6.15
2018-03-23T06:18:30.989Z,6.29
2018-03-23T06:20:58.295Z,6.32
2018-03-23T06:23:28.608Z,6.32
2018-03-23T06:25:55.871Z,6.25
2018-03-23T06:28:23.257Z,6.33
2018-03-23T06:30:50.490Z,6.21
2018-03-23T06:33:22.985Z,6.32
2018-03-23T06:35:50.058Z,6.30
2018-03-23T06:38:17.307Z,6.37
2018-03-23T06:40:44.495Z,6.40
2018-03-23T06:43:15.945Z,6.32
2018-03-23T06:45:43.629Z,6.43
2018-03-23T06:48:11.518Z,6.39
2018-03-23T06:50:38.659Z,6.60
2018-03-23T06:53:07.001Z,6.53
2018-03-23T06:55:34.302Z,6.67
2018-03-23T06:58:01.499Z,6.62
2018-03-23T07:00:28.829Z,6.73
2018-03-23T07:02:56.081Z,6.46
2018-03-23T07:05:23.322Z,6.62
2018-03-23T07:07:50.674Z,6.95
2018-03-23T07:10:17.866Z,7.14
2018-03-23T07:12:45.366Z,6.95
2018-03-23T07:15:12.658Z,6.63
2018-03-23T07:17:39.874Z,6.79
2018-03-23T07:20:07.165Z,6.58
2018-03-23T07:22:37.783Z,6.49
2018-03-23T07:25:05.126Z,6.69
2018-03-23T07:27:32.359Z,6.78
2018-03-23T07:29:59.724Z,6.82
2018-03-23T07:32:44.278Z,6.91
2018-03-23T07:35:11.569Z,7.18
2018-03-23T07:37:38.794Z,7.22
2018-03-23T07:40:06.195Z,7.20
2018-03-23T07:42:40.722Z,7.11
2018-03-23T07:45:07.945Z,7.08
2018-03-23T07:47:35.191Z,7.23
2018-03-23T07:50:02.552Z,7.37
2018-03-23T07:52:30.842Z,7.42
2018-03-23T07:54:58.189Z,7.60
2018-03-23T07:57:25.273Z,7.79
2018-03-23T07:59:52.437Z,7.35
2018-03-23T08:02:23.429Z,7.25
2018-03-23T08:04:50.629Z,7.20
2018-03-23T08:07:17.802Z,7.39
2018-03-23T08:09:45.093Z,7.19
2018-03-23T08:12:12.451Z,7.16
2018-03-23T08:14:39.822Z,7.12
2018-03-23T08:17:07.008Z,7.16
2018-03-23T08:19:34.179Z,7.07
2018-03-23T08:22:05.694Z,7.06
2018-03-23T08:24:32.893Z,7.21
2018-03-23T08:27:00.059Z,7.21
2018-03-23T08:29:27.638Z,7.11
2018-03-23T08:31:54.926Z,6.99
2018-03-23T08:34:22.095Z,7.07
2018-03-23T08:36:49.450Z,7.07
2018-03-23T08:39:16.843Z,7.10
2018-03-23T08:41:44.094Z,7.11
2018-03-23T08:44:12.508Z,7.30
2018-03-23T08:46:39.735Z,7.02
2018-03-23T08:49:07.072Z,7.08
2018-03-23T08:51:34.290Z,5.51
2018-03-23T08:54:01.784Z,5.10
2018-03-23T08:56:28.992Z,5.02
2018-03-23T08:58:56.095Z,4.98
2018-03-23T09:01:40.822Z,5.19
2018-03-23T09:04:09.003Z,5.32
2018-03-23T09:06:37.166Z,5.43
2018-03-23T09:09:04.446Z,5.69
2018-03-23T09:11:31.770Z,5.38
2018-03-23T09:13:59.205Z,5.40
2018-03-23T09:16:26.351Z,5.64
2018-03-23T09:18:53.735Z,5.03
2018-03-23T09:21:21.010Z,5.33
2018-03-23T09:23:54.614Z,5.53
2018-03-23T09:26:21.986Z,4.96
2018-03-23T09:28:49.272Z,5.29
2018-03-23T09:31:16.662Z,5.43
2018-03-23T09:33:45.095Z,5.73
2018-03-23T09:36:12.538Z,5.83
2018-03-23T09:38:41.361Z,5.61
2018-03-23T09:41:08.599Z,5.35
2018-03-23T09:43:37.136Z,5.65
2018-03-23T09:46:04.369Z,5.38
2018-03-23T09:48:31.535Z,5.18
2018-03-23T09:50:58.598Z,4.77
2018-03-23T09:53:25.942Z,4.66
2018-03-23T09:55:53.156Z,4.44
2018-03-23T09:58:22.207Z,4.41
2018-03-23T10:00:49.761Z,4.14
2018-03-23T10:03:21.819Z,4.35
2018-03-23T10:05:50.350Z,4.62
2018-03-23T10:08:17.662Z,4.05
2018-03-23T10:10:45.626Z,4.19
2018-03-23T10:13:13.982Z,4.27
2018-03-23T10:15:41.210Z,4.39
2018-03-23T10:18:08.199Z,4.24
2018-03-23T10:20:35.369Z,4.40
2018-03-23T10:23:06.374Z,6.86
2018-03-23T10:25:33.637Z,6.71
2018-03-23T10:28:00.898Z,6.29
2018-03-23T10:30:28.317Z,5.70
2018-03-23T10:32:59.483Z,6.02
2018-03-23T10:35:26.776Z,7.16
2018-03-23T10:37:54.631Z,5.54
2018-03-23T10:40:22.749Z,5.51
2018-03-23T10:42:51.385Z,5.41
2018-03-23T10:45:18.559Z,5.43
2018-03-23T10:47:47.041Z,7.13
2018-03-23T10:50:14.901Z,4.82
2018-03-23T10:52:46.494Z,4.38
2018-03-23T10:55:14.157Z,4.06
2018-03-23T10:57:41.395Z,4.22
2018-03-23T11:00:08.715Z,4.16
2018-03-23T11:02:39.095Z,4.56
2018-03-23T11:05:06.262Z,4.53
2018-03-23T11:07:33.502Z,4.78
2018-03-23T11:10:00.837Z,4.32
2018-03-23T11:12:29.780Z,4.42
2018-03-23T11:14:57.097Z,4.12
2018-03-23T11:17:25.089Z,4.08
2018-03-23T11:19:52.654Z,3.75
2018-03-23T11:22:23.283Z,3.83
2018-03-23T11:24:50.765Z,3.69
2018-03-23T11:27:18.003Z,3.84
2018-03-23T11:29:45.245Z,3.81
2018-03-23T11:32:13.638Z,3.73
2018-03-23T11:34:40.951Z,4.27
2018-03-23T11:37:08.199Z,4.20
2018-03-23T11:39:35.566Z,4.34
2018-03-23T11:42:02.901Z,4.04
2018-03-23T11:44:30.274Z,4.67
2018-03-23T11:46:57.539Z,4.30
2018-03-23T11:49:24.835Z,4.78
2018-03-23T11:51:53.349Z,4.42
2018-03-23T11:54:20.701Z,4.52
2018-03-23T11:56:48.055Z,4.65
2018-03-23T11:59:15.376Z,4.56
2018-03-23T12:01:46.699Z,4.60
2018-03-23T12:04:14.597Z,4.38
2018-03-23T12:06:41.798Z,4.12
2018-03-23T12:09:09.390Z,3.95
2018-03-23T12:11:37.346Z,3.94
2018-03-23T12:14:04.607Z,3.78
2018-03-23T12:16:31.828Z,3.74
2018-03-23T12:18:59.113Z,3.99
2018-03-23T12:21:27.549Z,4.11
2018-03-23T12:23:54.837Z,4.11
2018-03-23T12:26:22.098Z,3.92
2018-03-23T12:28:49.374Z,4.07
2018-03-23T12:31:16.642Z,4.25
2018-03-23T12:33:43.857Z,4.12
2018-03-23T12:36:11.058Z,4.25
2018-03-23T12:38:38.315Z,4.19
2018-03-23T12:41:05.649Z,4.02
2018-03-23T12:43:34.646Z,3.98
2018-03-23T12:46:01.950Z,3.85
2018-03-23T12:48:29.773Z,4.05
2018-03-23T12:50:57.592Z,3.83
2018-03-23T12:53:26.151Z,3.93
2018-03-23T12:55:53.449Z,3.67
2018-03-23T12:58:20.693Z,3.76
2018-03-23T13:00:47.974Z,3.84
2018-03-23T13:03:18.886Z,3.93
2018-03-23T13:05:46.126Z,3.88
2018-03-23T13:08:13.314Z,3.74
2018-03-23T13:10:40.497Z,3.71
2018-03-23T13:13:11.068Z,4.00
2018-03-23T13:15:38.114Z,4.58
2018-03-23T13:18:05.409Z,3.96
2018-03-23T13:20:32.579Z,4.12
2018-03-23T13:23:05.246Z,3.79
2018-03-23T13:25:33.020Z,3.82
2018-03-23T13:28:00.218Z,3.99
2018-03-23T13:30:27.361Z,3.91
2018-03-23T13:32:57.899Z,3.79
2018-03-23T13:35:25.715Z,3.71
2018-03-23T13:37:53.735Z,3.72
2018-03-23T13:40:20.886Z,3.74
2018-03-23T13:42:49.358Z,3.76
2018-03-23T13:45:17.337Z,4.04
2018-03-23T13:47:44.626Z,3.95
2018-03-23T13:50:11.843Z,4.06
2018-03-23T13:52:43.062Z,4.18
2018-03-23T13:55:10.299Z,3.89
2018-03-23T13:57:37.526Z,3.98
2018-03-23T14:00:05.286Z,3.61
2018-03-23T14:02:33.555Z,3.54
2018-03-23T14:05:01.590Z,3.47
2018-03-23T14:07:28.754Z,3.45
2018-03-23T14:09:56.083Z,3.60
2018-03-23T14:12:27.189Z,3.46
2018-03-23T14:14:55.147Z,3.36
2018-03-23T14:17:22.449Z,3.51
2018-03-23T14:19:49.769Z,3.28
2018-03-23T14:22:18.167Z,3.08
2018-03-23T14:24:45.417Z,3.30
2018-03-23T14:27:12.607Z,2.90
2018-03-23T14:29:39.817Z,2.87
2018-03-23T14:32:10.697Z,2.78
2018-03-23T14:34:38.012Z,2.76
2018-03-23T14:37:05.248Z,3.21
2018-03-23T14:39:32.517Z,3.08
2018-03-23T14:42:00.762Z,2.91
2018-03-23T14:44:28.077Z,3.29
2018-03-23T14:46:55.306Z,3.21
2018-03-23T14:49:23.286Z,3.13
2018-03-23T14:51:56.616Z,2.66
2018-03-23T14:54:24.324Z,2.55
2018-03-23T14:56:51.655Z,2.49
2018-03-23T14:59:18.826Z,2.58
2018-03-23T15:01:47.949Z,2.12
2018-03-23T15:04:15.238Z,2.23
2018-03-23T15:06:42.603Z,2.41
2018-03-23T15:09:09.927Z,2.32
2018-03-23T15:11:38.343Z,2.28
2018-03-23T15:14:15.625Z,2.60
2018-03-23T15:16:42.919Z,2.60
2018-03-23T15:19:10.193Z,2.18
2018-03-23T15:21:38.572Z,2.10
2018-03-23T15:24:05.790Z,2.00
2018-03-23T15:26:33.094Z,2.42
2018-03-23T15:29:00.783Z,2.15
2018-03-23T15:31:29.318Z,2.17
2018-03-23T15:33:56.798Z,2.36
2018-03-23T15:36:24.070Z,2.39
2018-03-23T15:38:51.762Z,2.26
2018-03-23T15:41:22.667Z,2.25
2018-03-23T15:43:49.809Z,1.83
2018-03-23T15:46:16.993Z,1.90
2018-03-23T15:48:44.275Z,2.07
2018-03-23T15:51:15.462Z,2.02
2018-03-23T15:53:42.641Z,1.94
2018-03-23T15:56:10.725Z,2.01
2018-03-23T15:58:37.663Z,2.04
2018-03-23T16:01:08.814Z,1.98
2018-03-23T16:03:36.171Z,1.87
2018-03-23T16:06:03.731Z,1.72
2018-03-23T16:08:31.158Z,1.88
2018-03-23T16:11:02.007Z,2.00
2018-03-23T16:13:29.229Z,1.60
2018-03-23T16:15:56.445Z,1.90
2018-03-23T16:18:23.598Z,1.73
2018-03-23T16:20:50.843Z,1.85
2018-03-23T16:23:18.857Z,1.87
2018-03-23T16:25:46.078Z,1.85
2018-03-23T16:28:13.410Z,1.74
2018-03-23T16:30:40.646Z,1.84
2018-03-23T16:33:07.979Z,1.62
2018-03-23T16:35:35.186Z,1.68
2018-03-23T16:38:03.699Z,1.59
2018-03-23T16:40:30.925Z,1.45
2018-03-23T16:42:58.315Z,1.30
2018-03-23T16:45:25.515Z,1.37
2018-03-23T16:47:52.866Z,1.45
2018-03-23T16:50:20.058Z,1.39
2018-03-23T16:52:48.311Z,1.68
2018-03-23T16:55:16.175Z,1.52
2018-03-23T16:57:43.397Z,1.48
2018-03-23T17:00:10.627Z,1.23
2018-03-23T17:02:41.695Z,1.55
2018-03-23T17:05:08.963Z,1.18
2018-03-23T17:07:36.300Z,1.38
2018-03-23T17:10:03.763Z,1.68
2018-03-23T17:12:31.174Z,1.80
2018-03-23T17:14:58.446Z,1.62
2018-03-23T17:17:26.136Z,1.53
2018-03-23T17:19:53.452Z,1.37
2018-03-23T17:22:24.159Z,1.40
2018-03-23T17:24:51.296Z,1.29
2018-03-23T17:27:18.895Z,1.43
2018-03-23T17:29:47.090Z,1.41
2018-03-23T17:32:14.490Z,1.32
2018-03-23T17:34:42.533Z,1.43
2018-03-23T17:37:09.554Z,1.79
2018-03-23T17:39:36.862Z,1.45
2018-03-23T17:42:04.323Z,1.55
2018-03-23T17:44:31.641Z,1.59
2018-03-23T17:46:58.885Z,1.81
2018-03-23T17:49:26.752Z,1.63
2018-03-23T17:51:53.993Z,1.43
2018-03-23T17:54:21.326Z,1.79
2018-03-23T17:56:48.597Z,1.65
2018-03-23T17:59:16.663Z,1.15
2018-03-23T18:01:45.188Z,1.66
2018-03-23T18:04:13.031Z,1.40
2018-03-23T18:06:40.256Z,1.45
2018-03-23T18:09:07.779Z,1.92
2018-03-23T18:11:36.134Z,1.62
2018-03-23T18:14:03.365Z,1.49
2018-03-23T18:16:30.568Z,1.41
2018-03-23T18:18:57.892Z,1.55
2018-03-23T18:21:27.023Z,0.99
2018-03-23T18:23:55.075Z,1.11
2018-03-23T18:26:23.059Z,0.95
2018-03-23T18:28:51.149Z,1.01
2018-03-23T18:31:23.194Z,0.88
2018-03-23T18:33:50.985Z,1.21
2018-03-23T18:36:18.247Z,0.84
2018-03-23T18:38:45.751Z,1.06
2018-03-23T18:41:16.405Z,0.94
2018-03-23T18:43:44.434Z,1.37
2018-03-23T18:46:11.734Z,0.93
2018-03-23T18:48:40.064Z,1.36
2018-03-23T18:51:10.906Z,0.92
2018-03-23T18:53:38.086Z,1.28
2018-03-23T18:56:05.363Z,1.18
2018-03-23T18:58:32.604Z,1.16
2018-03-23T19:01:02.995Z,1.24
2018-03-23T19:03:30.694Z,1.32
2018-03-23T19:05:57.719Z,1.34
2018-03-23T19:08:24.854Z,1.35
2018-03-23T19:10:53.390Z,1.15
2018-03-23T19:13:20.538Z,1.04
2018-03-23T19:15:49.512Z,1.18
2018-03-23T19:18:16.615Z,0.88
2018-03-23T19:20:48.004Z,0.85
2018-03-23T19:23:15.475Z,0.82
2018-03-23T19:25:42.715Z,0.81
2018-03-23T19:28:10.311Z,0.63
2018-03-23T19:30:39.462Z,0.57
2018-03-23T19:33:06.754Z,0.86
2018-03-23T19:35:34.002Z,0.62
2018-03-23T19:38:01.114Z,0.67
2018-03-23T19:40:29.508Z,0.64
2018-03-23T19:42:56.747Z,0.30
2018-03-23T19:45:24.674Z,0.28
2018-03-23T19:47:51.875Z,0.21
2018-03-23T19:50:19.166Z,0.12
2018-03-23T19:52:46.403Z,0.42
2018-03-23T19:55:14.440Z,0.55
2018-03-23T19:57:41.663Z,0.65
2018-03-23T20:00:08.819Z,0.54
2018-03-23T20:02:35.852Z,0.58
2018-03-23T20:05:03.204Z,0.79
2018-03-23T20:07:30.426Z,0.85
2018-03-23T20:09:57.734Z,0.99
2018-03-23T20:12:26.181Z,0.70
2018-03-23T20:14:53.440Z,0.11
2018-03-23T20:17:26.586Z,0.40
2018-03-23T20:19:53.900Z,0.38
2018-03-23T20:22:22.174Z,0.60
2018-03-23T20:24:49.422Z,0.39
2018-03-23T20:27:22.454Z,0.59
2018-03-23T20:29:49.673Z,0.45
2018-03-23T20:32:22.798Z,0.14
2018-03-23T20:34:50.082Z,0.17
2018-03-23T20:37:17.786Z,0.11
2018-03-23T20:39:45.095Z,0.17
2018-03-23T20:42:12.183Z,-0.12
2018-03-23T20:44:39.384Z,-0.30
2018-03-23T20:47:06.708Z,0.00
2018-03-23T20:49:33.809Z,0.04
2018-03-23T20:52:01.088Z,0.32
2018-03-23T20:54:28.305Z,0.12
2018-03-23T20:56:55.522Z,0.33
2018-03-23T20:59:23.324Z,-0.15
2018-03-23T21:01:51.510Z,0.18
2018-03-23T21:04:18.761Z,-0.11
2018-03-23T21:06:45.989Z,0.13
2018-03-23T21:09:13.298Z,-0.04
2018-03-23T21:11:43.734Z,0.24
2018-03-23T21:14:11.036Z,0.33
2018-03-23T21:16:38.263Z,0.07
2018-03-23T21:19:05.512Z,0.12
2018-03-23T21:21:32.935Z,0.18
2018-03-23T21:24:00.206Z,0.38
2018-03-23T21:26:27.800Z,0.13
2018-03-23T21:28:55.285Z,0.12
2018-03-23T21:31:23.668Z,0.22
2018-03-23T21:33:50.946Z,0.22
2018-03-23T21:36:18.963Z,0.06
2018-03-23T21:38:46.192Z,0.00
2018-03-23T21:41:14.540Z,-0.08
2018-03-23T21:43:42.290Z,-0.24
2018-03-23T21:46:10.457Z,-0.08
2018-03-23T21:48:37.578Z,0.04
2018-03-23T21:51:05.932Z,-0.09
2018-03-23T21:53:33.102Z,-0.05
2018-03-23T21:56:00.174Z,0.27
2018-03-23T21:58:27.370Z,0.41
2018-03-23T22:01:00.478Z,0.20
2018-03-23T22:03:27.665Z,0.24
2018-03-23T22:05:54.803Z,0.17
2018-03-23T22:08:22.003Z,0.52
2018-03-23T22:10:49.242Z,0.64
2018-03-23T22:13:16.409Z,0.50
2018-03-23T22:15:43.631Z,0.40
2018-03-23T22:18:10.737Z,0.37
2018-03-23T22:20:41.743Z,0.46
2018-03-23T22:23:08.883Z,0.50
2018-03-23T22:25:36.146Z,0.66
2018-03-23T22:28:03.623Z,0.38
2018-03-23T22:30:31.921Z,0.33
2018-03-23T22:32:59.077Z,0.19
2018-03-23T22:35:27.617Z,0.20
2018-03-23T22:37:55.477Z,0.21
2018-03-23T22:40:22.825Z,0.43
2018-03-23T22:42:50.811Z,0.37
2018-03-23T22:45:17.934Z,0.47
2018-03-23T22:47:45.295Z,0.62
2018-03-23T22:50:13.194Z,0.70
2018-03-23T22:52:40.474Z,0.39
2018-03-23T22:55:07.756Z,0.10
2018-03-23T22:57:34.817Z,0.13
2018-03-23T23:00:02.111Z,0.31
2018-03-23T23:02:29.418Z,0.37
2018-03-23T23:04:56.730Z,0.38
2018-03-23T23:07:24.005Z,0.46
2018-03-23T23:09:52.483Z,0.80
2018-03-23T23:12:19.759Z,0.45
2018-03-23T23:14:46.893Z,0.46
2018-03-23T23:17:14.130Z,0.63
2018-03-23T23:19:41.511Z,0.43
2018-03-23T23:22:08.823Z,0.67
2018-03-23T23:24:36.060Z,0.71
2018-03-23T23:27:03.201Z,0.89
2018-03-23T23:29:30.769Z,0.89
2018-03-23T23:31:59.262Z,0.68
2018-03-23T23:34:26.565Z,0.54
2018-03-23T23:36:54.655Z,0.58
2018-03-23T23:39:21.902Z,0.69
2018-03-23T23:41:50.585Z,0.48
2018-03-23T23:44:17.800Z,0.72
2018-03-23T23:46:46.141Z,0.42
2018-03-23T23:49:13.570Z,0.64
2018-03-23T23:51:41.910Z,0.59
2018-03-23T23:54:09.176Z,0.32
2018-03-23T23:56:36.426Z,0.62
2018-03-23T23:59:04.252Z,0.25
